sensor_id;sensor_type;location;lat;lon;timestamp;pressure;altitude;pressure_sealevel;temperature;humidity
23643;BME280;11998;55.788;37.572;2022-11-20T00:00:53;99168.97;;;-1.81;100.00
23643;BME280;11998;55.788;37.572;2022-11-20T00:01:54;99173.03;;;-1.92;100.00
23643;BME280;11998;55.788;37.572;2022-11-20T00:02:54;99170.63;;;-1.85;100.00
23643;BME280;11998;55.788;37.572;2022-11-20T00:03:55;99169.88;;;-1.79;100.00
23643;BME280;11998;55.788;37.572;2022-11-20T00:04:56;99169.75;;;-1.85;100.00
23643;BME280;11998;55.788;37.572;2022-11-20T00:06:03;99176.59;;;-1.87;100.00
23643;BME280;11998;55.788;37.572;2022-11-20T00:07:03;99169.25;;;-2.07;100.00
23643;BME280;11998;55.788;37.572;2022-11-20T00:08:04;99174.66;;;-1.97;100.00
23643;BME280;11998;55.788;37.572;2022-11-20T00:09:04;99167.34;;;-2.14;100.00
23643;BME280;11998;55.788;37.572;2022-11-20T00:10:05;99171.53;;;-2.20;100.00
23643;BME280;11998;55.788;37.572;2022-11-20T00:11:06;99186.84;;;-2.29;100.00
23643;BME280;11998;55.788;37.572;2022-11-20T00:12:07;99180.72;;;-2.33;100.00
23643;BME280;11998;55.788;37.572;2022-11-20T00:13:07;99183.44;;;-2.28;100.00
23643;BME280;11998;55.788;37.572;2022-11-20T00:14:12;99174.84;;;-2.26;100.00
23643;BME280;11998;55.788;37.572;2022-11-20T00:15:12;99175.53;;;-2.33;100.00
23643;BME280;11998;55.788;37.572;2022-11-20T00:16:14;99177.53;;;-2.23;100.00
23643;BME280;11998;55.788;37.572;2022-11-20T00:17:14;99175.94;;;-2.16;100.00
23643;BME280;11998;55.788;37.572;2022-11-20T00:18:15;99171.28;;;-2.29;100.00
23643;BME280;11998;55.788;37.572;2022-11-20T00:19:15;99184.91;;;-2.38;100.00
23643;BME280;11998;55.788;37.572;2022-11-20T00:20:15;99172.16;;;-2.29;100.00
23643;BME280;11998;55.788;37.572;2022-11-20T00:21:17;99184.22;;;-2.31;100.00
23643;BME280;11998;55.788;37.572;2022-11-20T00:22:18;99180.78;;;-2.30;100.00
23643;BME280;11998;55.788;37.572;2022-11-20T00:23:18;99177.41;;;-2.27;100.00
23643;BME280;11998;55.788;37.572;2022-11-20T00:24:19;99177.59;;;-2.20;100.00
23643;BME280;11998;55.788;37.572;2022-11-20T00:25:19;99181.16;;;-2.15;100.00
23643;BME280;11998;55.788;37.572;2022-11-20T00:26:20;99162.03;;;-2.20;100.00
23643;BME280;11998;55.788;37.572;2022-11-20T00:27:20;99171.25;;;-2.31;100.00
23643;BME280;11998;55.788;37.572;2022-11-20T00:28:21;99178.09;;;-2.34;100.00
23643;BME280;11998;55.788;37.572;2022-11-20T00:29:21;99182.56;;;-2.29;100.00
23643;BME280;11998;55.788;37.572;2022-11-20T00:30:21;99178.50;;;-2.18;100.00
23643;BME280;11998;55.788;37.572;2022-11-20T00:31:22;99181.22;;;-2.12;100.00
23643;BME280;11998;55.788;37.572;2022-11-20T00:32:22;99172.47;;;-2.17;100.00
23643;BME280;11998;55.788;37.572;2022-11-20T00:33:23;99175.16;;;-2.12;100.00
23643;BME280;11998;55.788;37.572;2022-11-20T00:34:23;99169.13;;;-2.11;100.00
23643;BME280;11998;55.788;37.572;2022-11-20T00:35:23;99176.03;;;-2.12;100.00
23643;BME280;11998;55.788;37.572;2022-11-20T00:36:25;99172.63;;;-2.11;100.00
23643;BME280;11998;55.788;37.572;2022-11-20T00:37:25;99184.47;;;-2.22;100.00
23643;BME280;11998;55.788;37.572;2022-11-20T00:38:26;99175.91;;;-2.18;100.00
23643;BME280;11998;55.788;37.572;2022-11-20T00:39:26;99179.34;;;-2.19;100.00
23643;BME280;11998;55.788;37.572;2022-11-20T00:40:26;99174.16;;;-2.19;100.00
23643;BME280;11998;55.788;37.572;2022-11-20T00:41:27;99179.47;;;-2.13;100.00
23643;BME280;11998;55.788;37.572;2022-11-20T00:42:28;99175.91;;;-2.18;100.00
23643;BME280;11998;55.788;37.572;2022-11-20T00:43:28;99175.16;;;-2.12;100.00
23643;BME280;11998;55.788;37.572;2022-11-20T00:44:29;99181.22;;;-2.12;100.00
23643;BME280;11998;55.788;37.572;2022-11-20T00:45:29;99174.28;;;-2.13;100.00
23643;BME280;11998;55.788;37.572;2022-11-20T00:46:29;99163.91;;;-2.13;100.00
23643;BME280;11998;55.788;37.572;2022-11-20T00:47:30;99172.63;;;-2.11;100.00
23643;BME280;11998;55.788;37.572;2022-11-20T00:48:30;99166.72;;;-2.03;100.00
23643;BME280;11998;55.788;37.572;2022-11-20T00:49:31;99164.97;;;-2.04;100.00
23643;BME280;11998;55.788;37.572;2022-11-20T00:50:31;99165.59;;;-2.15;100.00
23643;BME280;11998;55.788;37.572;2022-11-20T00:51:31;99173.50;;;-2.10;100.00
23643;BME280;11998;55.788;37.572;2022-11-20T00:52:32;99173.59;;;-2.05;100.00
23643;BME280;11998;55.788;37.572;2022-11-20T00:53:32;99173.88;;;-1.93;100.00
23643;BME280;11998;55.788;37.572;2022-11-20T00:54:33;99165.88;;;-2.02;100.00
23643;BME280;11998;55.788;37.572;2022-11-20T00:55:33;99172.69;;;-2.08;100.00
23643;BME280;11998;55.788;37.572;2022-11-20T00:56:34;99172.75;;;-2.04;100.00
23643;BME280;11998;55.788;37.572;2022-11-20T00:57:34;99177.06;;;-2.05;100.00
23643;BME280;11998;55.788;37.572;2022-11-20T00:58:35;99177.94;;;-2.04;100.00
23643;BME280;11998;55.788;37.572;2022-11-20T00:59:36;99169.34;;;-2.02;100.00
23643;BME280;11998;55.788;37.572;2022-11-20T01:00:36;99171.88;;;-2.05;100.00
23643;BME280;11998;55.788;37.572;2022-11-20T01:01:37;99169.38;;;-2.00;100.00
23643;BME280;11998;55.788;37.572;2022-11-20T01:02:37;99174.78;;;-1.91;100.00
23643;BME280;11998;55.788;37.572;2022-11-20T01:03:39;99168.97;;;-1.81;100.00
23643;BME280;11998;55.788;37.572;2022-11-20T01:04:39;99181.78;;;-1.87;100.00
23643;BME280;11998;55.788;37.572;2022-11-20T01:05:39;99167.84;;;-1.92;100.00
23643;BME280;11998;55.788;37.572;2022-11-20T01:06:40;99152.97;;;-1.99;100.00
23643;BME280;11998;55.788;37.572;2022-11-20T01:07:40;99163.84;;;-2.16;100.00
23643;BME280;11998;55.788;37.572;2022-11-20T01:08:40;99165.66;;;-2.12;100.00
23643;BME280;11998;55.788;37.572;2022-11-20T01:09:41;99165.38;;;-2.24;100.00
23643;BME280;11998;55.788;37.572;2022-11-20T01:10:41;99160.06;;;-2.30;100.00
23643;BME280;11998;55.788;37.572;2022-11-20T01:11:43;99173.06;;;-2.28;100.00
23643;BME280;11998;55.788;37.572;2022-11-20T01:12:44;99162.69;;;-2.28;100.00
23643;BME280;11998;55.788;37.572;2022-11-20T01:14:05;99168.50;;;-2.37;100.00
23643;BME280;11998;55.788;37.572;2022-11-20T01:15:05;99160.94;;;-2.29;100.00
23643;BME280;11998;55.788;37.572;2022-11-20T01:16:07;99164.88;;;-2.45;100.00
23643;BME280;11998;55.788;37.572;2022-11-20T01:17:08;99161.41;;;-2.46;100.00
23643;BME280;11998;55.788;37.572;2022-11-20T01:18:09;99168.56;;;-2.35;100.00
23643;BME280;11998;55.788;37.572;2022-11-20T01:19:10;99163.56;;;-2.28;100.00
23643;BME280;11998;55.788;37.572;2022-11-20T01:20:11;99169.53;;;-2.30;100.00
23643;BME280;11998;55.788;37.572;2022-11-20T01:21:12;99173.13;;;-2.25;100.00
23643;BME280;11998;55.788;37.572;2022-11-20T01:22:13;99154.69;;;-2.36;100.00
23643;BME280;11998;55.788;37.572;2022-11-20T01:23:13;99163.41;;;-2.34;100.00
23643;BME280;11998;55.788;37.572;2022-11-20T01:24:14;99168.75;;;-2.28;100.00
23643;BME280;11998;55.788;37.572;2022-11-20T01:25:15;99165.16;;;-2.33;100.00
23643;BME280;11998;55.788;37.572;2022-11-20T01:26:16;99163.25;;;-2.40;100.00
23643;BME280;11998;55.788;37.572;2022-11-20T01:27:17;99167.66;;;-2.36;100.00
23643;BME280;11998;55.788;37.572;2022-11-20T01:28:17;99158.31;;;-2.31;100.00
23643;BME280;11998;55.788;37.572;2022-11-20T01:29:22;99155.00;;;-2.24;100.00
23643;BME280;11998;55.788;37.572;2022-11-20T01:30:23;99162.03;;;-2.20;100.00
23643;BME280;11998;55.788;37.572;2022-11-20T01:31:30;99171.69;;;-2.13;100.00
23643;BME280;11998;55.788;37.572;2022-11-20T01:32:31;99166.75;;;-2.02;100.00
23643;BME280;11998;55.788;37.572;2022-11-20T01:33:31;99165.66;;;-2.12;100.00
23643;BME280;11998;55.788;37.572;2022-11-20T01:34:32;99170.78;;;-2.15;100.00
23643;BME280;11998;55.788;37.572;2022-11-20T01:35:32;99171.81;;;-2.08;100.00
23643;BME280;11998;55.788;37.572;2022-11-20T01:36:33;99172.81;;;-2.01;100.00
23643;BME280;11998;55.788;37.572;2022-11-20T01:37:33;99171.28;;;-1.93;100.00
23643;BME280;11998;55.788;37.572;2022-11-20T01:38:34;99170.13;;;-2.06;100.00
23643;BME280;11998;55.788;37.572;2022-11-20T01:39:34;99171.13;;;-1.99;100.00
23643;BME280;11998;55.788;37.572;2022-11-20T01:40:35;99169.91;;;-2.15;100.00
23643;BME280;11998;55.788;37.572;2022-11-20T01:41:35;99166.38;;;-2.19;100.00
23643;BME280;11998;55.788;37.572;2022-11-20T01:42:58;99166.34;;;-2.20;100.00
23643;BME280;11998;55.788;37.572;2022-11-20T01:44:22;99168.03;;;-2.22;100.00
23643;BME280;11998;55.788;37.572;2022-11-20T01:45:45;99184.22;;;-2.31;100.00
23643;BME280;11998;55.788;37.572;2022-11-20T01:46:57;99172.16;;;-2.29;100.00
23643;BME280;11998;55.788;37.572;2022-11-20T01:47:59;99175.53;;;-2.33;100.00
23643;BME280;11998;55.788;37.572;2022-11-20T01:49:04;99176.41;;;-2.32;100.00
23643;BME280;11998;55.788;37.572;2022-11-20T01:50:11;99183.53;;;-2.24;100.00
23643;BME280;11998;55.788;37.572;2022-11-20T01:51:20;99166.31;;;-2.22;100.00
23643;BME280;11998;55.788;37.572;2022-11-20T01:52:22;99173.00;;;-2.30;100.00
23643;BME280;11998;55.788;37.572;2022-11-20T01:53:24;99175.69;;;-2.27;100.00
23643;BME280;11998;55.788;37.572;2022-11-20T01:54:28;99172.25;;;-2.26;100.00
23643;BME280;11998;55.788;37.572;2022-11-20T01:55:31;99189.44;;;-2.29;100.00
23643;BME280;11998;55.788;37.572;2022-11-20T01:56:33;99185.81;;;-2.36;100.00
23643;BME280;11998;55.788;37.572;2022-11-20T01:57:36;99194.59;;;-2.31;100.00
23643;BME280;11998;55.788;37.572;2022-11-20T01:58:39;99191.16;;;-2.30;100.00
23643;BME280;11998;55.788;37.572;2022-11-20T01:59:47;99186.97;;;-2.25;100.00
23643;BME280;11998;55.788;37.572;2022-11-20T02:00:51;99186.38;;;-2.13;100.00
23643;BME280;11998;55.788;37.572;2022-11-20T02:01:52;99194.09;;;-2.16;100.00
23643;BME280;11998;55.788;37.572;2022-11-20T02:02:57;99189.19;;;-2.04;100.00
23643;BME280;11998;55.788;37.572;2022-11-20T02:03:58;99188.31;;;-2.04;100.00
23643;BME280;11998;55.788;37.572;2022-11-20T02:05:01;99190.06;;;-2.03;100.00
23643;BME280;11998;55.788;37.572;2022-11-20T02:06:07;99193.56;;;-2.01;100.00
23643;BME280;11998;55.788;37.572;2022-11-20T02:07:10;99194.47;;;-1.99;100.00
23643;BME280;11998;55.788;37.572;2022-11-20T02:08:10;99187.19;;;-2.16;100.00
23643;BME280;11998;55.788;37.572;2022-11-20T02:09:11;99192.44;;;-2.13;100.00
23643;BME280;11998;55.788;37.572;2022-11-20T02:10:12;99198.66;;;-2.06;100.00
23643;BME280;11998;55.788;37.572;2022-11-20T02:11:12;99196.94;;;-2.05;100.00
23643;BME280;11998;55.788;37.572;2022-11-20T02:12:13;99202.25;;;-1.99;100.00
23643;BME280;11998;55.788;37.572;2022-11-20T02:13:33;99197.44;;;-1.84;100.00
23643;BME280;11998;55.788;37.572;2022-11-20T02:14:43;99201.06;;;-1.76;100.00
23643;BME280;11998;55.788;37.572;2022-11-20T02:15:43;99201.22;;;-1.70;100.00
23643;BME280;11998;55.788;37.572;2022-11-20T02:16:45;99206.47;;;-1.67;100.00
23643;BME280;11998;55.788;37.572;2022-11-20T02:17:45;99203.84;;;-1.68;100.00
23643;BME280;11998;55.788;37.572;2022-11-20T02:18:46;99200.94;;;-1.82;100.00
23643;BME280;11998;55.788;37.572;2022-11-20T02:19:46;99201.56;;;-1.92;100.00
23643;BME280;11998;55.788;37.572;2022-11-20T02:20:48;99207.66;;;-1.90;100.00
23643;BME280;11998;55.788;37.572;2022-11-20T02:22:07;99198.13;;;-1.91;100.00
23643;BME280;11998;55.788;37.572;2022-11-20T02:23:24;99201.06;;;-1.76;100.00
23643;BME280;11998;55.788;37.572;2022-11-20T02:24:28;99201.00;;;-1.79;100.00
23643;BME280;11998;55.788;37.572;2022-11-20T02:25:28;99214.84;;;-1.80;100.00
23643;BME280;11998;55.788;37.572;2022-11-20T02:26:31;99204.22;;;-1.89;100.00
23643;BME280;11998;55.788;37.572;2022-11-20T02:27:32;99203.09;;;-2.00;100.00
23643;BME280;11998;55.788;37.572;2022-11-20T02:28:33;99202.94;;;-2.08;100.00
23643;BME280;11998;55.788;37.572;2022-11-20T02:29:35;99204.19;;;-1.92;100.00
23643;BME280;11998;55.788;37.572;2022-11-20T02:30:37;99208.41;;;-1.96;100.00
23643;BME280;11998;55.788;37.572;2022-11-20T02:31:38;99208.53;;;-1.91;100.00
23643;BME280;11998;55.788;37.572;2022-11-20T02:32:40;99200.31;;;-2.10;100.00
23643;BME280;11998;55.788;37.572;2022-11-20T02:33:40;99215.00;;;-2.10;100.00
23643;BME280;11998;55.788;37.572;2022-11-20T02:34:40;99209.06;;;-2.04;100.00
23643;BME280;11998;55.788;37.572;2022-11-20T02:35:42;99212.56;;;-2.02;100.00
23643;BME280;11998;55.788;37.572;2022-11-20T02:36:43;99217.09;;;-1.95;100.00
23643;BME280;11998;55.788;37.572;2022-11-20T02:37:44;99214.50;;;-1.95;100.00
23643;BME280;11998;55.788;37.572;2022-11-20T02:38:45;99215.47;;;-1.90;100.00
23643;BME280;11998;55.788;37.572;2022-11-20T02:39:49;99215.41;;;-1.93;100.00
23643;BME280;11998;55.788;37.572;2022-11-20T02:40:50;99223.25;;;-1.90;100.00
23643;BME280;11998;55.788;37.572;2022-11-20T02:41:51;99210.16;;;-1.96;100.00
23643;BME280;11998;55.788;37.572;2022-11-20T02:42:52;99212.91;;;-1.89;100.00
23643;BME280;11998;55.788;37.572;2022-11-20T02:43:53;99215.94;;;-2.07;100.00
23643;BME280;11998;55.788;37.572;2022-11-20T02:44:53;99224.34;;;-2.17;100.00
23643;BME280;11998;55.788;37.572;2022-11-20T02:45:53;99225.97;;;-2.22;100.00
23643;BME280;11998;55.788;37.572;2022-11-20T02:46:56;99219.16;;;-2.17;100.00
23643;BME280;11998;55.788;37.572;2022-11-20T02:47:56;99224.03;;;-2.29;100.00
23643;BME280;11998;55.788;37.572;2022-11-20T02:48:57;99215.41;;;-2.28;100.00
23643;BME280;11998;55.788;37.572;2022-11-20T02:49:57;99220.69;;;-2.25;100.00
23643;BME280;11998;55.788;37.572;2022-11-20T02:50:58;99221.69;;;-2.20;100.00
23643;BME280;11998;55.788;37.572;2022-11-20T02:51:58;99214.03;;;-2.14;100.00
23643;BME280;11998;55.788;37.572;2022-11-20T02:52:58;99214.19;;;-2.08;100.00
23643;BME280;11998;55.788;37.572;2022-11-20T02:53:59;99215.78;;;-2.13;100.00
23643;BME280;11998;55.788;37.572;2022-11-20T02:54:59;99220.41;;;-2.01;100.00
23643;BME280;11998;55.788;37.572;2022-11-20T02:56:00;99228.00;;;-2.09;100.00
23643;BME280;11998;55.788;37.572;2022-11-20T02:57:00;99224.41;;;-2.14;100.00
23643;BME280;11998;55.788;37.572;2022-11-20T02:58:01;99222.81;;;-2.09;100.00
23643;BME280;11998;55.788;37.572;2022-11-20T02:59:01;99220.84;;;-2.19;100.00
23643;BME280;11998;55.788;37.572;2022-11-20T03:00:02;99229.69;;;-2.11;100.00
23643;BME280;11998;55.788;37.572;2022-11-20T03:01:03;99223.56;;;-2.13;100.00
23643;BME280;11998;55.788;37.572;2022-11-20T03:02:03;99223.53;;;-2.14;100.00
23643;BME280;11998;55.788;37.572;2022-11-20T03:03:05;99229.41;;;-2.23;100.00
23643;BME280;11998;55.788;37.572;2022-11-20T03:04:05;99229.75;;;-2.08;100.00
23643;BME280;11998;55.788;37.572;2022-11-20T03:05:05;99229.47;;;-2.20;100.00
23643;BME280;11998;55.788;37.572;2022-11-20T03:06:06;99226.09;;;-2.16;100.00
23643;BME280;11998;55.788;37.572;2022-11-20T03:07:07;99228.88;;;-2.08;100.00
23643;BME280;11998;55.788;37.572;2022-11-20T03:08:07;99223.75;;;-2.05;100.00
23643;BME280;11998;55.788;37.572;2022-11-20T03:09:08;99228.69;;;-2.16;100.00
23643;BME280;11998;55.788;37.572;2022-11-20T03:10:09;99224.50;;;-2.11;100.00
23643;BME280;11998;55.788;37.572;2022-11-20T03:11:10;99228.16;;;-2.02;100.00
23643;BME280;11998;55.788;37.572;2022-11-20T03:12:10;99224.00;;;-1.96;100.00
23643;BME280;11998;55.788;37.572;2022-11-20T03:13:10;99224.19;;;-1.87;100.00
23643;BME280;11998;55.788;37.572;2022-11-20T03:14:11;99214.56;;;-1.92;100.00
23643;BME280;11998;55.788;37.572;2022-11-20T03:15:11;99222.06;;;-2.04;100.00
23643;BME280;11998;55.788;37.572;2022-11-20T03:16:12;99229.59;;;-2.14;100.00
23643;BME280;11998;55.788;37.572;2022-11-20T03:17:13;99219.31;;;-2.11;100.00
23643;BME280;11998;55.788;37.572;2022-11-20T03:18:13;99225.75;;;-1.95;100.00
23643;BME280;11998;55.788;37.572;2022-11-20T03:19:14;99229.84;;;-2.04;100.00
23643;BME280;11998;55.788;37.572;2022-11-20T03:20:15;99232.28;;;-2.11;100.00
23643;BME280;11998;55.788;37.572;2022-11-20T03:21:15;99225.44;;;-2.07;100.00
23643;BME280;11998;55.788;37.572;2022-11-20T03:22:16;99229.47;;;-2.20;100.00
23643;BME280;11998;55.788;37.572;2022-11-20T03:23:16;99227.84;;;-2.15;100.00
23643;BME280;11998;55.788;37.572;2022-11-20T03:24:17;99229.59;;;-2.14;100.00
23643;BME280;11998;55.788;37.572;2022-11-20T03:25:17;99226.72;;;-2.26;100.00
23643;BME280;11998;55.788;37.572;2022-11-20T03:26:18;99225.78;;;-2.28;100.00
23643;BME280;11998;55.788;37.572;2022-11-20T03:27:19;99225.66;;;-2.34;100.00
23643;BME280;11998;55.788;37.572;2022-11-20T03:28:20;99232.34;;;-2.42;100.00
23643;BME280;11998;55.788;37.572;2022-11-20T03:29:20;99229.09;;;-2.35;100.00
23643;BME280;11998;55.788;37.572;2022-11-20T03:30:20;99225.69;;;-2.32;100.00
23643;BME280;11998;55.788;37.572;2022-11-20T03:31:22;99230.09;;;-2.28;100.00
23643;BME280;11998;55.788;37.572;2022-11-20T03:32:23;99230.38;;;-2.18;100.00
23643;BME280;11998;55.788;37.572;2022-11-20T03:33:23;99232.00;;;-2.23;100.00
23643;BME280;11998;55.788;37.572;2022-11-20T03:34:24;99241.22;;;-2.34;100.00
23643;BME280;11998;55.788;37.572;2022-11-20T03:35:24;99240.28;;;-2.36;100.00
23643;BME280;11998;55.788;37.572;2022-11-20T03:36:26;99241.34;;;-2.28;100.00
23643;BME280;11998;55.788;37.572;2022-11-20T03:37:26;99237.53;;;-2.42;100.00
23643;BME280;11998;55.788;37.572;2022-11-20T03:38:28;99227.97;;;-2.45;100.00
23643;BME280;11998;55.788;37.572;2022-11-20T03:39:29;99234.09;;;-2.41;100.00
23643;BME280;11998;55.788;37.572;2022-11-20T03:40:29;99237.84;;;-2.30;100.00
23643;BME280;11998;55.788;37.572;2022-11-20T03:41:30;99236.97;;;-2.30;100.00
23643;BME280;11998;55.788;37.572;2022-11-20T03:42:30;99237.56;;;-2.41;100.00
23643;BME280;11998;55.788;37.572;2022-11-20T03:44:49;99240.78;;;-2.16;100.00
23643;BME280;11998;55.788;37.572;2022-11-20T03:45:49;99235.75;;;-2.10;100.00
23643;BME280;11998;55.788;37.572;2022-11-20T03:46:50;99240.16;;;-2.08;100.00
23643;BME280;11998;55.788;37.572;2022-11-20T03:47:50;99235.22;;;-1.97;100.00
23643;BME280;11998;55.788;37.572;2022-11-20T03:48:51;99241.25;;;-1.98;100.00
23643;BME280;11998;55.788;37.572;2022-11-20T03:49:52;99236.28;;;-1.87;100.00
23643;BME280;11998;55.788;37.572;2022-11-20T03:50:53;99234.63;;;-1.85;100.00
23643;BME280;11998;55.788;37.572;2022-11-20T03:51:53;99233.84;;;-1.81;100.00
23643;BME280;11998;55.788;37.572;2022-11-20T03:52:54;99235.66;;;-1.77;100.00
23643;BME280;11998;55.788;37.572;2022-11-20T03:53:55;99235.44;;;-1.86;100.00
23643;BME280;11998;55.788;37.572;2022-11-20T03:54:56;99236.84;;;-2.00;100.00
23643;BME280;11998;55.788;37.572;2022-11-20T03:55:56;99234.22;;;-2.02;100.00
23643;BME280;11998;55.788;37.572;2022-11-20T03:56:56;99234.16;;;-2.05;100.00
23643;BME280;11998;55.788;37.572;2022-11-20T03:57:57;99243.88;;;-1.96;100.00
23643;BME280;11998;55.788;37.572;2022-11-20T03:58:57;99239.38;;;-2.03;100.00
23643;BME280;11998;55.788;37.572;2022-11-20T03:59:58;99237.63;;;-2.04;100.00
23643;BME280;11998;55.788;37.572;2022-11-20T04:01:03;99242.03;;;-2.00;100.00
23643;BME280;11998;55.788;37.572;2022-11-20T04:02:03;99235.25;;;-1.95;100.00
23643;BME280;11998;55.788;37.572;2022-11-20T04:03:04;99230.13;;;-1.92;100.00
23643;BME280;11998;55.788;37.572;2022-11-20T04:04:05;99237.56;;;-2.08;100.00
23643;BME280;11998;55.788;37.572;2022-11-20T04:05:06;99240.88;;;-2.12;100.00
23643;BME280;11998;55.788;37.572;2022-11-20T04:06:13;99239.13;;;-2.13;100.00
23643;BME280;11998;55.788;37.572;2022-11-20T04:07:13;99243.28;;;-2.21;100.00
23643;BME280;11998;55.788;37.572;2022-11-20T04:08:14;99242.59;;;-2.12;100.00
23643;BME280;11998;55.788;37.572;2022-11-20T04:09:14;99254.03;;;-2.05;100.00
23643;BME280;11998;55.788;37.572;2022-11-20T04:10:15;99239.91;;;-2.17;100.00
23643;BME280;11998;55.788;37.572;2022-11-20T04:11:17;99245.03;;;-2.20;100.00
23643;BME280;11998;55.788;37.572;2022-11-20T04:12:17;99248.53;;;-2.18;100.00
23643;BME280;11998;55.788;37.572;2022-11-20T04:13:18;99242.38;;;-2.23;100.00
23643;BME280;11998;55.788;37.572;2022-11-20T04:14:18;99244.34;;;-2.11;100.00
23643;BME280;11998;55.788;37.572;2022-11-20T04:15:18;99251.38;;;-2.09;100.00
23643;BME280;11998;55.788;37.572;2022-11-20T04:16:19;99253.03;;;-2.11;100.00
23643;BME280;11998;55.788;37.572;2022-11-20T04:17:20;99248.09;;;-2.00;100.00
23643;BME280;11998;55.788;37.572;2022-11-20T04:18:20;99252.63;;;-1.91;100.00
23643;BME280;11998;55.788;37.572;2022-11-20T04:19:21;99250.06;;;-1.90;100.00
23643;BME280;11998;55.788;37.572;2022-11-20T04:20:21;99252.50;;;-1.97;100.00
23643;BME280;11998;55.788;37.572;2022-11-20T04:21:22;99254.25;;;-1.96;100.00
23643;BME280;11998;55.788;37.572;2022-11-20T04:22:22;99256.94;;;-1.92;100.00
23643;BME280;11998;55.788;37.572;2022-11-20T04:23:23;99257.28;;;-1.78;100.00
23643;BME280;11998;55.788;37.572;2022-11-20T04:24:23;99254.75;;;-1.75;100.00
23643;BME280;11998;55.788;37.572;2022-11-20T04:25:23;99265.22;;;-1.72;100.00
23643;BME280;11998;55.788;37.572;2022-11-20T04:26:25;99256.97;;;-1.90;100.00
23643;BME280;11998;55.788;37.572;2022-11-20T04:27:26;99253.75;;;-1.82;100.00
23643;BME280;11998;55.788;37.572;2022-11-20T04:28:26;99256.44;;;-1.77;100.00
23643;BME280;11998;55.788;37.572;2022-11-20T04:29:27;99260.88;;;-1.73;100.00
23643;BME280;11998;55.788;37.572;2022-11-20T04:30:27;99259.88;;;-1.78;100.00
23643;BME280;11998;55.788;37.572;2022-11-20T04:31:28;99265.34;;;-1.66;100.00
23643;BME280;11998;55.788;37.572;2022-11-20T04:32:29;99271.41;;;-1.65;100.00
23643;BME280;11998;55.788;37.572;2022-11-20T04:33:29;99268.94;;;-1.61;100.00
23643;BME280;11998;55.788;37.572;2022-11-20T04:34:29;99266.50;;;-1.53;100.00
23643;BME280;11998;55.788;37.572;2022-11-20T04:35:30;99261.88;;;-1.66;100.00
23643;BME280;11998;55.788;37.572;2022-11-20T04:36:33;99270.59;;;-1.63;100.00
23643;BME280;11998;55.788;37.572;2022-11-20T04:37:34;99277.53;;;-1.62;100.00
23643;BME280;11998;55.788;37.572;2022-11-20T04:38:34;99272.44;;;-1.59;100.00
23643;BME280;11998;55.788;37.572;2022-11-20T04:39:35;99272.13;;;-1.72;100.00
23643;BME280;11998;55.788;37.572;2022-11-20T04:40:35;99282.16;;;-1.86;100.00
23643;BME280;11998;55.788;37.572;2022-11-20T04:41:36;99277.13;;;-1.80;100.00
23643;BME280;11998;55.788;37.572;2022-11-20T04:42:36;99272.16;;;-1.71;100.00
23643;BME280;11998;55.788;37.572;2022-11-20T04:43:37;99274.91;;;-1.63;100.00
23643;BME280;11998;55.788;37.572;2022-11-20T04:44:37;99274.75;;;-1.71;100.00
23643;BME280;11998;55.788;37.572;2022-11-20T04:45:37;99288.16;;;-1.53;100.00
23643;BME280;11998;55.788;37.572;2022-11-20T04:46:39;99280.50;;;-1.48;100.00
23643;BME280;11998;55.788;37.572;2022-11-20T04:47:39;99282.91;;;-1.56;100.00
23643;BME280;11998;55.788;37.572;2022-11-20T04:48:40;99276.59;;;-1.65;100.00
23643;BME280;11998;55.788;37.572;2022-11-20T04:49:40;99293.06;;;-1.65;100.00
23643;BME280;11998;55.788;37.572;2022-11-20T04:50:40;99291.09;;;-1.75;100.00
23643;BME280;11998;55.788;37.572;2022-11-20T04:51:41;99285.13;;;-1.72;100.00
23643;BME280;11998;55.788;37.572;2022-11-20T04:52:41;99286.06;;;-1.69;100.00
23643;BME280;11998;55.788;37.572;2022-11-20T04:53:41;99286.19;;;-1.63;100.00
23643;BME280;11998;55.788;37.572;2022-11-20T04:54:42;99287.00;;;-1.65;100.00
23643;BME280;11998;55.788;37.572;2022-11-20T04:55:42;99293.66;;;-1.77;100.00
23643;BME280;11998;55.788;37.572;2022-11-20T04:56:43;99286.88;;;-1.71;100.00
23643;BME280;11998;55.788;37.572;2022-11-20T04:57:43;99298.19;;;-1.68;100.00
23643;BME280;11998;55.788;37.572;2022-11-20T04:58:44;99301.56;;;-1.72;100.00
23643;BME280;11998;55.788;37.572;2022-11-20T04:59:44;99296.38;;;-1.72;100.00
23643;BME280;11998;55.788;37.572;2022-11-20T05:00:44;99299.66;;;-1.79;100.00
23643;BME280;11998;55.788;37.572;2022-11-20T05:01:45;99303.91;;;-1.83;100.00
23643;BME280;11998;55.788;37.572;2022-11-20T05:02:45;99299.34;;;-1.91;100.00
23643;BME280;11998;55.788;37.572;2022-11-20T05:03:46;99300.50;;;-1.80;100.00
23643;BME280;11998;55.788;37.572;2022-11-20T05:04:46;99297.66;;;-1.89;100.00
23643;BME280;11998;55.788;37.572;2022-11-20T05:05:46;99305.91;;;-2.05;100.00
23643;BME280;11998;55.788;37.572;2022-11-20T05:06:47;99303.56;;;-1.96;100.00
23643;BME280;11998;55.788;37.572;2022-11-20T05:07:48;99307.19;;;-1.88;100.00
23643;BME280;11998;55.788;37.572;2022-11-20T05:08:48;99301.28;;;-1.84;100.00
23643;BME280;11998;55.788;37.572;2022-11-20T05:09:48;99307.47;;;-1.78;100.00
23643;BME280;11998;55.788;37.572;2022-11-20T05:10:49;99303.97;;;-1.80;100.00
23643;BME280;11998;55.788;37.572;2022-11-20T05:11:49;99310.84;;;-1.82;100.00
23643;BME280;11998;55.788;37.572;2022-11-20T05:12:49;99304.47;;;-1.94;100.00
23643;BME280;11998;55.788;37.572;2022-11-20T05:13:50;99304.59;;;-1.88;100.00
23643;BME280;11998;55.788;37.572;2022-11-20T05:14:51;99307.34;;;-1.84;100.00
23643;BME280;11998;55.788;37.572;2022-11-20T05:15:51;99307.22;;;-1.87;100.00
23643;BME280;11998;55.788;37.572;2022-11-20T05:16:52;99302.09;;;-1.85;100.00
23643;BME280;11998;55.788;37.572;2022-11-20T05:17:52;99298.69;;;-1.83;100.00
23643;BME280;11998;55.788;37.572;2022-11-20T05:18:54;99306.53;;;-1.81;100.00